createdAt,value
2018-11-26T00:01:21.549Z,19.90
2018-11-26T00:11:30.924Z,17.37
2018-11-26T00:21:35.174Z,19.67
2018-11-26T00:31:39.386Z,19.93
2018-11-26T00:41:43.497Z,17.63
2018-11-26T00:51:47.616Z,15.97
2018-11-26T01:01:51.819Z,18.30
2018-11-26T01:11:56.028Z,18.97
2018-11-26T01:22:00.125Z,17.33
2018-11-26T01:32:04.308Z,15.17
2018-11-26T01:42:08.574Z,14.93
2018-11-26T01:52:12.705Z,14.87
2018-11-26T02:02:16.876Z,15.37
2018-11-26T02:12:21.006Z,13.63
2018-11-26T02:22:25.170Z,13.30
2018-11-26T02:32:29.352Z,12.43
2018-11-26T02:42:33.646Z,13.30
2018-11-26T02:52:37.780Z,14.27
2018-11-26T03:02:41.930Z,13.07
2018-11-26T03:12:46.086Z,13.77
2018-11-26T03:22:50.172Z,13.77
2018-11-26T03:32:54.336Z,12.63
2018-11-26T03:42:58.476Z,13.17
2018-11-26T03:53:02.568Z,14.33
2018-11-26T04:03:06.736Z,12.80
2018-11-26T04:13:10.836Z,13.27
2018-11-26T04:23:14.992Z,12.97
2018-11-26T04:33:19.088Z,12.00
2018-11-26T04:43:23.289Z,11.77
2018-11-26T04:53:27.388Z,11.40
2018-11-26T05:03:31.677Z,10.43
2018-11-26T05:13:35.813Z,9.87
2018-11-26T05:23:40.167Z,10.93
2018-11-26T05:33:44.391Z,10.63
2018-11-26T05:43:48.579Z,10.97
2018-11-26T05:53:52.817Z,14.97
2018-11-26T06:03:56.946Z,10.70
2018-11-26T06:14:01.537Z,10.87
2018-11-26T06:24:05.951Z,11.00
2018-11-26T06:34:10.104Z,10.53
2018-11-26T06:44:14.297Z,9.87
2018-11-26T06:54:18.439Z,10.47
2018-11-26T07:04:22.584Z,10.37
2018-11-26T07:14:26.773Z,11.03
2018-11-26T07:24:30.889Z,9.53
2018-11-26T07:34:35.162Z,9.00
2018-11-26T07:44:39.431Z,9.97
2018-11-26T07:54:43.554Z,8.80
2018-11-26T08:04:47.746Z,8.87
2018-11-26T08:14:51.857Z,8.60
2018-11-26T08:24:56.160Z,8.97
2018-11-26T08:35:00.335Z,9.70
2018-11-26T08:45:06.379Z,7.83
2018-11-26T08:55:10.651Z,7.83
2018-11-26T09:05:23.907Z,8.13
2018-11-26T09:15:24.195Z,7.33
2018-11-26T09:25:28.481Z,7.90
2018-11-26T09:35:32.678Z,8.30
2018-11-26T09:45:40.431Z,6.93
2018-11-26T09:55:41.477Z,6.87
2018-11-26T10:05:45.679Z,7.63
2018-11-26T10:15:49.890Z,6.60
2018-11-26T10:25:54.003Z,6.17
2018-11-26T10:35:58.449Z,6.43
2018-11-26T10:46:02.684Z,7.33
2018-11-26T10:56:07.194Z,6.60
2018-11-26T11:06:11.315Z,7.17
2018-11-26T11:16:15.665Z,6.87
2018-11-26T11:26:19.998Z,5.87
2018-11-26T11:36:24.493Z,6.17
2018-11-26T11:46:28.608Z,6.20
2018-11-26T11:56:32.784Z,6.77
2018-11-26T12:06:36.991Z,5.37
2018-11-26T12:16:41.198Z,5.37
2018-11-26T12:26:45.377Z,5.83
2018-11-26T12:36:49.509Z,6.70
2018-11-26T12:46:53.771Z,6.67
2018-11-26T12:56:57.998Z,6.43
2018-11-26T13:07:02.335Z,5.60
2018-11-26T13:17:06.879Z,5.50
2018-11-26T13:27:11.081Z,4.70
2018-11-26T13:37:15.190Z,5.17
2018-11-26T13:47:19.454Z,4.40
2018-11-26T13:57:23.716Z,4.87
2018-11-26T14:07:28.132Z,5.53
2018-11-26T14:17:32.254Z,4.80
2018-11-26T14:27:36.510Z,5.47
2018-11-26T14:37:40.854Z,4.90
2018-11-26T14:47:45.518Z,5.40
2018-11-26T14:57:50.449Z,6.20
2018-11-26T15:07:54.605Z,6.00
2018-11-26T15:17:58.959Z,5.23
2018-11-26T15:28:08.469Z,5.13
2018-11-26T15:38:12.905Z,5.60
2018-11-26T15:48:17.037Z,5.47
2018-11-26T15:58:23.666Z,7.77
2018-11-26T16:08:25.887Z,6.00
2018-11-26T16:18:30.332Z,6.67
2018-11-26T16:28:34.599Z,6.73
2018-11-26T16:38:39.046Z,7.07
2018-11-26T16:48:43.778Z,6.27
2018-11-26T16:58:48.086Z,6.97
2018-11-26T17:08:52.411Z,6.70
2018-11-26T17:18:56.581Z,6.40
2018-11-26T17:29:00.872Z,6.60
2018-11-26T17:39:08.066Z,5.83
2018-11-26T17:49:12.152Z,5.10
2018-11-26T17:59:16.492Z,5.27
2018-11-26T18:09:22.795Z,5.10
2018-11-26T18:19:24.884Z,5.23
2018-11-26T18:29:29.190Z,5.27
2018-11-26T18:39:33.460Z,5.07
2018-11-26T18:49:38.423Z,6.90
2018-11-26T18:59:42.726Z,6.00
2018-11-26T19:09:46.954Z,6.43
2018-11-26T19:19:51.242Z,7.87
2018-11-26T19:29:55.507Z,6.70
2018-11-26T19:40:00.155Z,7.27
2018-11-26T19:50:04.417Z,6.40
2018-11-26T20:00:12.431Z,5.63
2018-11-26T20:10:16.562Z,5.50
2018-11-26T20:20:20.764Z,6.10
2018-11-26T20:30:24.951Z,5.70
2018-11-26T20:40:29.447Z,6.60
2018-11-26T20:50:33.609Z,6.97
2018-11-26T21:00:37.943Z,8.03
2018-11-26T21:10:42.133Z,7.73
2018-11-26T21:20:48.389Z,8.23
2018-11-26T21:30:52.751Z,6.63
2018-11-26T21:40:56.870Z,8.63
2018-11-26T21:51:00.957Z,28.80
2018-11-26T22:01:07.877Z,8.43
2018-11-26T22:11:12.075Z,9.17
2018-11-26T22:21:16.283Z,8.77
2018-11-26T22:31:20.509Z,9.67
2018-11-26T22:41:24.650Z,9.10
2018-11-26T22:51:28.832Z,10.67
2018-11-26T23:01:32.994Z,10.43
2018-11-26T23:11:37.270Z,9.90
2018-11-26T23:21:41.429Z,9.43
2018-11-26T23:31:45.516Z,11.23
2018-11-26T23:41:49.789Z,11.00
2018-11-26T23:51:53.977Z,8.40
